sensor_id;sensor_type;location;lat;lon;timestamp;P1;durP1;ratioP1;P2;durP2;ratioP2
20525;SDS011;10421;49.142;9.232;2022-12-20T00:01:41;45.80;;;22.47;;
20525;SDS011;10421;49.142;9.232;2022-12-20T00:04:08;40.00;;;21.90;;
20525;SDS011;10421;49.142;9.232;2022-12-20T00:06:36;43.73;;;22.53;;
20525;SDS011;10421;49.142;9.232;2022-12-20T00:09:04;37.93;;;21.13;;
20525;SDS011;10421;49.142;9.232;2022-12-20T00:11:33;46.30;;;21.93;;
20525;SDS011;10421;49.142;9.232;2022-12-20T00:14:00;42.57;;;22.10;;
20525;SDS011;10421;49.142;9.232;2022-12-20T00:16:27;45.10;;;23.27;;
20525;SDS011;10421;49.142;9.232;2022-12-20T00:18:56;43.07;;;20.43;;
20525;SDS011;10421;49.142;9.232;2022-12-20T00:21:24;42.73;;;22.07;;
20525;SDS011;10421;49.142;9.232;2022-12-20T00:23:51;43.30;;;21.47;;
20525;SDS011;10421;49.142;9.232;2022-12-20T00:26:19;42.53;;;22.17;;
20525;SDS011;10421;49.142;9.232;2022-12-20T00:28:48;46.97;;;22.10;;
20525;SDS011;10421;49.142;9.232;2022-12-20T00:31:16;42.97;;;22.40;;
20525;SDS011;10421;49.142;9.232;2022-12-20T00:33:44;42.90;;;21.10;;
20525;SDS011;10421;49.142;9.232;2022-12-20T00:36:14;45.00;;;23.37;;
20525;SDS011;10421;49.142;9.232;2022-12-20T00:38:43;41.47;;;21.53;;
20525;SDS011;10421;49.142;9.232;2022-12-20T00:41:12;44.87;;;20.97;;
20525;SDS011;10421;49.142;9.232;2022-12-20T00:43:41;45.57;;;24.33;;
20525;SDS011;10421;49.142;9.232;2022-12-20T00:46:08;46.10;;;23.60;;
20525;SDS011;10421;49.142;9.232;2022-12-20T00:48:36;42.00;;;22.93;;
20525;SDS011;10421;49.142;9.232;2022-12-20T00:51:04;45.03;;;22.60;;
20525;SDS011;10421;49.142;9.232;2022-12-20T00:53:33;47.67;;;24.23;;
20525;SDS011;10421;49.142;9.232;2022-12-20T00:56:01;50.07;;;23.60;;
20525;SDS011;10421;49.142;9.232;2022-12-20T00:58:28;44.53;;;22.30;;
20525;SDS011;10421;49.142;9.232;2022-12-20T01:00:56;44.63;;;24.20;;
20525;SDS011;10421;49.142;9.232;2022-12-20T01:03:23;46.57;;;23.33;;
20525;SDS011;10421;49.142;9.232;2022-12-20T01:05:51;43.80;;;23.30;;
20525;SDS011;10421;49.142;9.232;2022-12-20T01:08:18;43.17;;;21.90;;
20525;SDS011;10421;49.142;9.232;2022-12-20T01:10:50;40.30;;;21.70;;
20525;SDS011;10421;49.142;9.232;2022-12-20T01:13:23;47.50;;;22.00;;
20525;SDS011;10421;49.142;9.232;2022-12-20T01:15:50;40.13;;;21.40;;
20525;SDS011;10421;49.142;9.232;2022-12-20T01:18:17;40.53;;;20.83;;
20525;SDS011;10421;49.142;9.232;2022-12-20T01:20:44;42.93;;;21.63;;
20525;SDS011;10421;49.142;9.232;2022-12-20T01:23:11;40.63;;;20.80;;
20525;SDS011;10421;49.142;9.232;2022-12-20T01:25:37;39.73;;;21.60;;
20525;SDS011;10421;49.142;9.232;2022-12-20T01:28:06;43.00;;;20.70;;
20525;SDS011;10421;49.142;9.232;2022-12-20T01:30:34;45.90;;;21.50;;
20525;SDS011;10421;49.142;9.232;2022-12-20T01:33:04;41.70;;;21.70;;
20525;SDS011;10421;49.142;9.232;2022-12-20T01:35:31;41.70;;;20.50;;
20525;SDS011;10421;49.142;9.232;2022-12-20T01:37:57;48.27;;;23.87;;
20525;SDS011;10421;49.142;9.232;2022-12-20T01:40:24;44.30;;;22.83;;
20525;SDS011;10421;49.142;9.232;2022-12-20T01:42:51;47.57;;;24.47;;
20525;SDS011;10421;49.142;9.232;2022-12-20T01:45:22;40.70;;;22.97;;
20525;SDS011;10421;49.142;9.232;2022-12-20T01:47:53;40.80;;;21.43;;
20525;SDS011;10421;49.142;9.232;2022-12-20T01:50:21;49.23;;;22.90;;
20525;SDS011;10421;49.142;9.232;2022-12-20T01:52:48;38.77;;;20.00;;
20525;SDS011;10421;49.142;9.232;2022-12-20T01:55:15;45.70;;;21.80;;
20525;SDS011;10421;49.142;9.232;2022-12-20T01:57:46;36.97;;;20.40;;
20525;SDS011;10421;49.142;9.232;2022-12-20T02:00:15;35.83;;;20.07;;
20525;SDS011;10421;49.142;9.232;2022-12-20T02:02:45;53.97;;;28.03;;
20525;SDS011;10421;49.142;9.232;2022-12-20T02:05:14;78.40;;;38.50;;
20525;SDS011;10421;49.142;9.232;2022-12-20T02:07:41;62.37;;;33.37;;
20525;SDS011;10421;49.142;9.232;2022-12-20T02:10:11;57.53;;;29.67;;
20525;SDS011;10421;49.142;9.232;2022-12-20T02:12:39;72.50;;;34.93;;
20525;SDS011;10421;49.142;9.232;2022-12-20T02:15:11;70.83;;;31.40;;
20525;SDS011;10421;49.142;9.232;2022-12-20T02:18:02;70.43;;;32.90;;
20525;SDS011;10421;49.142;9.232;2022-12-20T02:23:41;42.00;;;23.83;;
20525;SDS011;10421;49.142;9.232;2022-12-20T02:26:55;36.97;;;21.77;;
20525;SDS011;10421;49.142;9.232;2022-12-20T02:32:35;39.67;;;21.90;;
20525;SDS011;10421;49.142;9.232;2022-12-20T02:35:06;46.53;;;23.50;;
20525;SDS011;10421;49.142;9.232;2022-12-20T02:37:34;43.50;;;24.07;;
20525;SDS011;10421;49.142;9.232;2022-12-20T02:40:01;45.77;;;22.70;;
20525;SDS011;10421;49.142;9.232;2022-12-20T02:42:29;52.17;;;24.40;;
20525;SDS011;10421;49.142;9.232;2022-12-20T02:44:59;41.67;;;21.90;;
20525;SDS011;10421;49.142;9.232;2022-12-20T02:47:44;43.67;;;23.40;;
20525;SDS011;10421;49.142;9.232;2022-12-20T02:50:16;42.43;;;23.10;;
20525;SDS011;10421;49.142;9.232;2022-12-20T02:52:45;43.20;;;23.60;;
20525;SDS011;10421;49.142;9.232;2022-12-20T02:55:13;39.43;;;22.93;;
20525;SDS011;10421;49.142;9.232;2022-12-20T02:57:41;49.50;;;24.27;;
20525;SDS011;10421;49.142;9.232;2022-12-20T03:00:12;47.23;;;24.80;;
20525;SDS011;10421;49.142;9.232;2022-12-20T03:02:41;39.03;;;22.17;;
20525;SDS011;10421;49.142;9.232;2022-12-20T03:05:28;43.70;;;23.70;;
20525;SDS011;10421;49.142;9.232;2022-12-20T03:07:57;44.07;;;25.40;;
20525;SDS011;10421;49.142;9.232;2022-12-20T03:10:23;48.93;;;24.57;;
20525;SDS011;10421;49.142;9.232;2022-12-20T03:12:51;41.30;;;22.40;;
20525;SDS011;10421;49.142;9.232;2022-12-20T03:15:18;42.63;;;23.57;;
20525;SDS011;10421;49.142;9.232;2022-12-20T03:17:44;45.93;;;23.07;;
20525;SDS011;10421;49.142;9.232;2022-12-20T03:20:11;44.83;;;23.23;;
20525;SDS011;10421;49.142;9.232;2022-12-20T03:22:39;43.63;;;24.53;;
20525;SDS011;10421;49.142;9.232;2022-12-20T03:25:06;41.20;;;24.50;;
20525;SDS011;10421;49.142;9.232;2022-12-20T03:27:34;43.47;;;22.90;;
20525;SDS011;10421;49.142;9.232;2022-12-20T03:30:00;44.53;;;23.80;;
20525;SDS011;10421;49.142;9.232;2022-12-20T03:32:27;45.37;;;22.90;;
20525;SDS011;10421;49.142;9.232;2022-12-20T03:34:54;40.37;;;22.40;;
20525;SDS011;10421;49.142;9.232;2022-12-20T03:37:21;43.40;;;24.10;;
20525;SDS011;10421;49.142;9.232;2022-12-20T03:39:49;47.60;;;25.40;;
20525;SDS011;10421;49.142;9.232;2022-12-20T03:42:16;44.17;;;23.80;;
20525;SDS011;10421;49.142;9.232;2022-12-20T03:44:42;42.10;;;21.63;;
20525;SDS011;10421;49.142;9.232;2022-12-20T03:47:09;44.27;;;23.43;;
20525;SDS011;10421;49.142;9.232;2022-12-20T03:49:36;42.70;;;22.50;;
20525;SDS011;10421;49.142;9.232;2022-12-20T03:52:03;40.17;;;22.47;;
20525;SDS011;10421;49.142;9.232;2022-12-20T03:54:29;43.97;;;23.97;;
20525;SDS011;10421;49.142;9.232;2022-12-20T03:56:58;40.50;;;22.90;;
20525;SDS011;10421;49.142;9.232;2022-12-20T03:59:24;41.87;;;23.23;;
20525;SDS011;10421;49.142;9.232;2022-12-20T04:01:51;42.50;;;22.00;;
20525;SDS011;10421;49.142;9.232;2022-12-20T04:04:18;40.67;;;21.97;;
20525;SDS011;10421;49.142;9.232;2022-12-20T04:06:44;42.07;;;23.63;;
20525;SDS011;10421;49.142;9.232;2022-12-20T04:09:12;41.53;;;22.37;;
20525;SDS011;10421;49.142;9.232;2022-12-20T04:11:39;43.80;;;23.23;;
20525;SDS011;10421;49.142;9.232;2022-12-20T04:14:07;43.00;;;21.73;;
20525;SDS011;10421;49.142;9.232;2022-12-20T04:16:33;42.77;;;21.97;;
20525;SDS011;10421;49.142;9.232;2022-12-20T04:19:00;40.90;;;21.80;;
20525;SDS011;10421;49.142;9.232;2022-12-20T04:21:28;43.67;;;22.97;;
20525;SDS011;10421;49.142;9.232;2022-12-20T04:23:56;40.20;;;22.30;;
20525;SDS011;10421;49.142;9.232;2022-12-20T04:26:23;41.50;;;21.27;;
20525;SDS011;10421;49.142;9.232;2022-12-20T04:28:50;39.93;;;21.47;;
20525;SDS011;10421;49.142;9.232;2022-12-20T04:31:19;40.57;;;22.00;;
20525;SDS011;10421;49.142;9.232;2022-12-20T04:33:46;38.30;;;20.60;;
20525;SDS011;10421;49.142;9.232;2022-12-20T04:36:14;35.60;;;19.57;;
20525;SDS011;10421;49.142;9.232;2022-12-20T04:38:41;40.07;;;21.90;;
20525;SDS011;10421;49.142;9.232;2022-12-20T04:41:07;42.70;;;20.97;;
20525;SDS011;10421;49.142;9.232;2022-12-20T04:43:34;42.90;;;21.83;;
20525;SDS011;10421;49.142;9.232;2022-12-20T04:46:01;39.90;;;20.40;;
20525;SDS011;10421;49.142;9.232;2022-12-20T04:48:29;41.40;;;19.60;;
20525;SDS011;10421;49.142;9.232;2022-12-20T04:50:56;43.33;;;21.03;;
20525;SDS011;10421;49.142;9.232;2022-12-20T04:53:23;38.53;;;20.63;;
20525;SDS011;10421;49.142;9.232;2022-12-20T04:56:07;37.63;;;20.00;;
20525;SDS011;10421;49.142;9.232;2022-12-20T04:58:34;42.63;;;20.17;;
20525;SDS011;10421;49.142;9.232;2022-12-20T05:01:01;45.97;;;20.93;;
20525;SDS011;10421;49.142;9.232;2022-12-20T05:03:29;34.90;;;18.80;;
20525;SDS011;10421;49.142;9.232;2022-12-20T05:05:56;41.03;;;20.40;;
20525;SDS011;10421;49.142;9.232;2022-12-20T05:08:23;36.20;;;19.43;;
20525;SDS011;10421;49.142;9.232;2022-12-20T05:10:50;36.27;;;19.53;;
20525;SDS011;10421;49.142;9.232;2022-12-20T05:13:17;46.40;;;20.50;;
20525;SDS011;10421;49.142;9.232;2022-12-20T05:15:43;46.67;;;22.90;;
20525;SDS011;10421;49.142;9.232;2022-12-20T05:18:10;40.87;;;21.33;;
20525;SDS011;10421;49.142;9.232;2022-12-20T05:20:38;40.70;;;20.60;;
20525;SDS011;10421;49.142;9.232;2022-12-20T05:23:05;40.03;;;21.40;;
20525;SDS011;10421;49.142;9.232;2022-12-20T05:25:49;37.47;;;19.50;;
20525;SDS011;10421;49.142;9.232;2022-12-20T05:28:36;39.83;;;20.10;;
20525;SDS011;10421;49.142;9.232;2022-12-20T05:31:02;41.53;;;19.63;;
20525;SDS011;10421;49.142;9.232;2022-12-20T05:33:29;40.80;;;20.77;;
20525;SDS011;10421;49.142;9.232;2022-12-20T05:35:57;39.60;;;21.37;;
20525;SDS011;10421;49.142;9.232;2022-12-20T05:38:24;70.07;;;33.47;;
20525;SDS011;10421;49.142;9.232;2022-12-20T05:40:51;126.63;;;59.87;;
20525;SDS011;10421;49.142;9.232;2022-12-20T05:43:19;80.50;;;40.43;;
20525;SDS011;10421;49.142;9.232;2022-12-20T05:45:46;83.83;;;43.67;;
20525;SDS011;10421;49.142;9.232;2022-12-20T05:48:13;86.40;;;42.10;;
20525;SDS011;10421;49.142;9.232;2022-12-20T05:50:41;70.10;;;34.93;;
20525;SDS011;10421;49.142;9.232;2022-12-20T05:53:10;118.53;;;54.27;;
20525;SDS011;10421;49.142;9.232;2022-12-20T05:55:38;101.50;;;49.07;;
20525;SDS011;10421;49.142;9.232;2022-12-20T05:58:08;90.03;;;44.30;;
20525;SDS011;10421;49.142;9.232;2022-12-20T06:00:37;80.77;;;37.13;;
20525;SDS011;10421;49.142;9.232;2022-12-20T06:03:05;121.40;;;55.97;;
20525;SDS011;10421;49.142;9.232;2022-12-20T06:05:33;81.37;;;40.10;;
20525;SDS011;10421;49.142;9.232;2022-12-20T06:08:00;38.23;;;20.83;;
20525;SDS011;10421;49.142;9.232;2022-12-20T06:10:28;34.00;;;19.87;;
20525;SDS011;10421;49.142;9.232;2022-12-20T06:12:55;42.30;;;20.07;;
20525;SDS011;10421;49.142;9.232;2022-12-20T06:15:22;44.93;;;22.90;;
20525;SDS011;10421;49.142;9.232;2022-12-20T06:17:49;52.90;;;26.57;;
20525;SDS011;10421;49.142;9.232;2022-12-20T06:20:16;83.90;;;38.00;;
20525;SDS011;10421;49.142;9.232;2022-12-20T06:22:42;74.53;;;34.87;;
20525;SDS011;10421;49.142;9.232;2022-12-20T06:25:09;40.83;;;21.30;;
20525;SDS011;10421;49.142;9.232;2022-12-20T06:27:37;36.37;;;20.43;;
20525;SDS011;10421;49.142;9.232;2022-12-20T06:30:05;36.10;;;17.20;;
20525;SDS011;10421;49.142;9.232;2022-12-20T06:32:32;38.67;;;19.83;;
20525;SDS011;10421;49.142;9.232;2022-12-20T06:34:59;35.00;;;18.80;;
20525;SDS011;10421;49.142;9.232;2022-12-20T06:37:26;42.07;;;20.17;;
20525;SDS011;10421;49.142;9.232;2022-12-20T06:39:52;36.70;;;20.17;;
20525;SDS011;10421;49.142;9.232;2022-12-20T06:42:19;37.03;;;19.00;;
20525;SDS011;10421;49.142;9.232;2022-12-20T06:44:47;38.43;;;19.60;;
20525;SDS011;10421;49.142;9.232;2022-12-20T06:47:14;30.53;;;17.53;;
20525;SDS011;10421;49.142;9.232;2022-12-20T06:49:41;36.77;;;19.23;;
20525;SDS011;10421;49.142;9.232;2022-12-20T06:52:08;34.13;;;19.30;;
20525;SDS011;10421;49.142;9.232;2022-12-20T06:54:34;34.40;;;19.07;;
20525;SDS011;10421;49.142;9.232;2022-12-20T06:57:01;36.20;;;19.30;;
20525;SDS011;10421;49.142;9.232;2022-12-20T06:59:28;37.10;;;18.37;;
20525;SDS011;10421;49.142;9.232;2022-12-20T07:01:56;34.40;;;19.10;;
20525;SDS011;10421;49.142;9.232;2022-12-20T07:04:23;33.43;;;19.53;;
20525;SDS011;10421;49.142;9.232;2022-12-20T07:06:49;42.70;;;19.80;;
20525;SDS011;10421;49.142;9.232;2022-12-20T07:09:16;38.47;;;20.53;;
20525;SDS011;10421;49.142;9.232;2022-12-20T07:11:43;36.50;;;18.80;;
20525;SDS011;10421;49.142;9.232;2022-12-20T07:14:10;40.00;;;20.63;;
20525;SDS011;10421;49.142;9.232;2022-12-20T07:16:37;42.40;;;21.33;;
20525;SDS011;10421;49.142;9.232;2022-12-20T07:19:08;41.43;;;21.20;;
20525;SDS011;10421;49.142;9.232;2022-12-20T07:21:35;41.23;;;21.87;;
20525;SDS011;10421;49.142;9.232;2022-12-20T07:24:02;43.27;;;22.60;;
20525;SDS011;10421;49.142;9.232;2022-12-20T07:26:30;40.40;;;21.20;;
20525;SDS011;10421;49.142;9.232;2022-12-20T07:28:57;41.60;;;22.90;;
20525;SDS011;10421;49.142;9.232;2022-12-20T07:31:23;39.27;;;22.33;;
20525;SDS011;10421;49.142;9.232;2022-12-20T07:33:50;36.43;;;20.70;;
20525;SDS011;10421;49.142;9.232;2022-12-20T07:36:18;41.33;;;21.60;;
20525;SDS011;10421;49.142;9.232;2022-12-20T07:38:45;40.07;;;20.57;;
20525;SDS011;10421;49.142;9.232;2022-12-20T07:41:14;42.43;;;21.80;;
20525;SDS011;10421;49.142;9.232;2022-12-20T07:43:41;40.67;;;21.87;;
20525;SDS011;10421;49.142;9.232;2022-12-20T07:46:14;35.73;;;19.60;;
20525;SDS011;10421;49.142;9.232;2022-12-20T07:48:41;35.93;;;19.20;;
20525;SDS011;10421;49.142;9.232;2022-12-20T07:51:09;36.87;;;20.63;;
20525;SDS011;10421;49.142;9.232;2022-12-20T07:53:42;39.13;;;19.47;;
20525;SDS011;10421;49.142;9.232;2022-12-20T07:56:12;32.27;;;18.33;;
20525;SDS011;10421;49.142;9.232;2022-12-20T07:58:40;38.07;;;20.00;;
20525;SDS011;10421;49.142;9.232;2022-12-20T08:01:12;38.97;;;20.03;;
20525;SDS011;10421;49.142;9.232;2022-12-20T08:03:40;40.07;;;20.10;;
20525;SDS011;10421;49.142;9.232;2022-12-20T08:06:10;38.53;;;20.13;;
20525;SDS011;10421;49.142;9.232;2022-12-20T08:08:39;37.63;;;20.00;;
20525;SDS011;10421;49.142;9.232;2022-12-20T08:11:15;41.17;;;20.43;;
20525;SDS011;10421;49.142;9.232;2022-12-20T08:13:43;37.03;;;17.53;;
20525;SDS011;10421;49.142;9.232;2022-12-20T08:16:11;37.60;;;18.70;;
20525;SDS011;10421;49.142;9.232;2022-12-20T08:18:37;40.13;;;18.97;;
20525;SDS011;10421;49.142;9.232;2022-12-20T08:21:04;33.57;;;18.40;;
20525;SDS011;10421;49.142;9.232;2022-12-20T08:23:31;40.50;;;19.50;;
20525;SDS011;10421;49.142;9.232;2022-12-20T08:26:00;36.90;;;19.57;;
20525;SDS011;10421;49.142;9.232;2022-12-20T08:28:27;44.50;;;21.20;;
20525;SDS011;10421;49.142;9.232;2022-12-20T08:30:59;35.40;;;19.20;;
20525;SDS011;10421;49.142;9.232;2022-12-20T08:33:26;41.00;;;20.80;;
20525;SDS011;10421;49.142;9.232;2022-12-20T08:35:56;42.80;;;20.87;;
20525;SDS011;10421;49.142;9.232;2022-12-20T08:38:24;45.63;;;22.13;;
20525;SDS011;10421;49.142;9.232;2022-12-20T08:40:51;36.40;;;21.13;;
20525;SDS011;10421;49.142;9.232;2022-12-20T08:43:20;40.10;;;20.10;;
20525;SDS011;10421;49.142;9.232;2022-12-20T08:45:50;37.00;;;19.10;;
20525;SDS011;10421;49.142;9.232;2022-12-20T08:48:17;34.33;;;19.63;;
20525;SDS011;10421;49.142;9.232;2022-12-20T08:50:44;39.00;;;19.90;;
20525;SDS011;10421;49.142;9.232;2022-12-20T08:53:11;39.23;;;20.67;;
20525;SDS011;10421;49.142;9.232;2022-12-20T08:55:38;40.10;;;21.47;;
20525;SDS011;10421;49.142;9.232;2022-12-20T08:58:04;42.23;;;22.77;;
20525;SDS011;10421;49.142;9.232;2022-12-20T09:00:32;41.93;;;19.90;;
20525;SDS011;10421;49.142;9.232;2022-12-20T09:02:59;43.90;;;19.77;;
20525;SDS011;10421;49.142;9.232;2022-12-20T09:05:26;42.20;;;21.93;;
20525;SDS011;10421;49.142;9.232;2022-12-20T09:07:52;42.30;;;21.30;;
20525;SDS011;10421;49.142;9.232;2022-12-20T09:10:19;42.07;;;21.87;;
20525;SDS011;10421;49.142;9.232;2022-12-20T09:12:46;36.07;;;21.47;;
20525;SDS011;10421;49.142;9.232;2022-12-20T09:15:13;39.70;;;20.20;;
20525;SDS011;10421;49.142;9.232;2022-12-20T09:17:41;38.57;;;20.20;;
20525;SDS011;10421;49.142;9.232;2022-12-20T09:20:08;32.77;;;19.37;;
20525;SDS011;10421;49.142;9.232;2022-12-20T09:22:35;37.20;;;20.17;;
20525;SDS011;10421;49.142;9.232;2022-12-20T09:25:02;39.43;;;21.80;;
20525;SDS011;10421;49.142;9.232;2022-12-20T09:27:31;38.07;;;19.93;;
20525;SDS011;10421;49.142;9.232;2022-12-20T09:29:57;40.50;;;21.50;;
20525;SDS011;10421;49.142;9.232;2022-12-20T09:32:24;40.40;;;21.83;;
20525;SDS011;10421;49.142;9.232;2022-12-20T09:34:52;38.80;;;21.30;;
20525;SDS011;10421;49.142;9.232;2022-12-20T09:37:19;33.33;;;20.30;;
20525;SDS011;10421;49.142;9.232;2022-12-20T09:39:47;36.57;;;21.13;;
20525;SDS011;10421;49.142;9.232;2022-12-20T09:42:15;38.80;;;21.43;;
20525;SDS011;10421;49.142;9.232;2022-12-20T09:44:44;31.87;;;19.00;;
20525;SDS011;10421;49.142;9.232;2022-12-20T09:47:12;38.50;;;20.20;;
20525;SDS011;10421;49.142;9.232;2022-12-20T09:49:43;36.87;;;20.37;;
20525;SDS011;10421;49.142;9.232;2022-12-20T09:52:18;41.87;;;22.17;;
20525;SDS011;10421;49.142;9.232;2022-12-20T09:54:56;36.10;;;20.00;;
20525;SDS011;10421;49.142;9.232;2022-12-20T09:57:37;46.73;;;21.60;;
20525;SDS011;10421;49.142;9.232;2022-12-20T10:00:12;42.40;;;22.00;;
20525;SDS011;10421;49.142;9.232;2022-12-20T10:02:41;31.37;;;19.37;;
20525;SDS011;10421;49.142;9.232;2022-12-20T10:05:11;34.23;;;19.90;;
20525;SDS011;10421;49.142;9.232;2022-12-20T10:07:43;39.93;;;21.57;;
20525;SDS011;10421;49.142;9.232;2022-12-20T10:10:23;44.37;;;20.90;;
20525;SDS011;10421;49.142;9.232;2022-12-20T10:13:06;39.57;;;20.33;;
20525;SDS011;10421;49.142;9.232;2022-12-20T10:15:43;39.83;;;19.27;;
20525;SDS011;10421;49.142;9.232;2022-12-20T10:18:20;32.63;;;19.00;;
20525;SDS011;10421;49.142;9.232;2022-12-20T10:20:56;35.33;;;20.30;;
20525;SDS011;10421;49.142;9.232;2022-12-20T10:23:29;32.73;;;18.83;;
20525;SDS011;10421;49.142;9.232;2022-12-20T10:26:04;34.90;;;17.50;;
20525;SDS011;10421;49.142;9.232;2022-12-20T10:28:35;33.70;;;18.80;;
20525;SDS011;10421;49.142;9.232;2022-12-20T10:31:03;29.87;;;18.33;;
20525;SDS011;10421;49.142;9.232;2022-12-20T10:33:31;39.20;;;19.40;;
20525;SDS011;10421;49.142;9.232;2022-12-20T10:38:46;36.00;;;18.70;;
20525;SDS011;10421;49.142;9.232;2022-12-20T10:41:15;38.90;;;20.57;;
20525;SDS011;10421;49.142;9.232;2022-12-20T10:43:44;34.30;;;18.57;;
20525;SDS011;10421;49.142;9.232;2022-12-20T10:46:13;31.53;;;19.00;;
20525;SDS011;10421;49.142;9.232;2022-12-20T10:48:42;32.57;;;18.90;;
20525;SDS011;10421;49.142;9.232;2022-12-20T10:51:15;30.03;;;19.17;;
20525;SDS011;10421;49.142;9.232;2022-12-20T10:53:51;35.57;;;19.80;;
20525;SDS011;10421;49.142;9.232;2022-12-20T10:56:20;34.60;;;19.73;;
20525;SDS011;10421;49.142;9.232;2022-12-20T10:58:51;32.33;;;19.37;;
20525;SDS011;10421;49.142;9.232;2022-12-20T11:01:20;43.87;;;21.43;;
20525;SDS011;10421;49.142;9.232;2022-12-20T11:03:51;35.63;;;20.10;;
20525;SDS011;10421;49.142;9.232;2022-12-20T11:06:20;36.90;;;20.83;;
20525;SDS011;10421;49.142;9.232;2022-12-20T11:08:48;36.03;;;19.10;;
20525;SDS011;10421;49.142;9.232;2022-12-20T11:11:19;45.93;;;21.50;;
20525;SDS011;10421;49.142;9.232;2022-12-20T11:13:48;43.40;;;21.13;;
20525;SDS011;10421;49.142;9.232;2022-12-20T11:16:23;36.80;;;20.57;;
20525;SDS011;10421;49.142;9.232;2022-12-20T11:18:55;38.50;;;19.97;;
20525;SDS011;10421;49.142;9.232;2022-12-20T11:21:30;37.60;;;19.47;;
20525;SDS011;10421;49.142;9.232;2022-12-20T11:24:09;37.60;;;20.87;;
20525;SDS011;10421;49.142;9.232;2022-12-20T11:26:42;35.30;;;19.50;;
20525;SDS011;10421;49.142;9.232;2022-12-20T11:29:21;37.17;;;19.20;;
20525;SDS011;10421;49.142;9.232;2022-12-20T11:31:59;34.63;;;18.83;;
20525;SDS011;10421;49.142;9.232;2022-12-20T11:34:36;45.63;;;23.03;;
20525;SDS011;10421;49.142;9.232;2022-12-20T11:37:15;44.93;;;22.57;;
20525;SDS011;10421;49.142;9.232;2022-12-20T11:39:59;38.87;;;20.80;;
20525;SDS011;10421;49.142;9.232;2022-12-20T11:42:36;35.77;;;19.50;;
20525;SDS011;10421;49.142;9.232;2022-12-20T11:45:19;30.83;;;18.40;;
20525;SDS011;10421;49.142;9.232;2022-12-20T11:47:58;35.60;;;18.90;;
20525;SDS011;10421;49.142;9.232;2022-12-20T11:50:51;33.30;;;19.30;;
20525;SDS011;10421;49.142;9.232;2022-12-20T11:53:27;31.10;;;17.07;;
20525;SDS011;10421;49.142;9.232;2022-12-20T11:56:04;34.83;;;19.87;;
20525;SDS011;10421;49.142;9.232;2022-12-20T11:58:37;37.90;;;22.77;;
20525;SDS011;10421;49.142;9.232;2022-12-20T12:01:15;39.27;;;22.30;;
20525;SDS011;10421;49.142;9.232;2022-12-20T12:03:45;38.17;;;21.57;;
20525;SDS011;10421;49.142;9.232;2022-12-20T12:06:24;36.00;;;21.40;;
20525;SDS011;10421;49.142;9.232;2022-12-20T12:08:58;35.40;;;19.33;;
20525;SDS011;10421;49.142;9.232;2022-12-20T12:11:39;33.30;;;19.20;;
20525;SDS011;10421;49.142;9.232;2022-12-20T12:16:44;43.83;;;24.20;;
20525;SDS011;10421;49.142;9.232;2022-12-20T12:19:15;43.10;;;23.30;;
20525;SDS011;10421;49.142;9.232;2022-12-20T12:21:43;40.03;;;21.87;;
20525;SDS011;10421;49.142;9.232;2022-12-20T12:24:16;34.20;;;19.93;;
20525;SDS011;10421;49.142;9.232;2022-12-20T12:26:49;34.67;;;20.00;;
20525;SDS011;10421;49.142;9.232;2022-12-20T12:29:17;30.67;;;17.83;;
20525;SDS011;10421;49.142;9.232;2022-12-20T12:31:46;34.20;;;19.50;;
20525;SDS011;10421;49.142;9.232;2022-12-20T12:34:20;33.93;;;19.80;;
20525;SDS011;10421;49.142;9.232;2022-12-20T12:37:10;36.87;;;21.00;;
20525;SDS011;10421;49.142;9.232;2022-12-20T12:39:56;39.20;;;20.20;;
20525;SDS011;10421;49.142;9.232;2022-12-20T12:45:41;33.03;;;19.93;;
20525;SDS011;10421;49.142;9.232;2022-12-20T12:48:13;31.43;;;21.40;;
20525;SDS011;10421;49.142;9.232;2022-12-20T12:50:43;35.77;;;21.03;;
20525;SDS011;10421;49.142;9.232;2022-12-20T12:53:13;36.07;;;20.40;;
20525;SDS011;10421;49.142;9.232;2022-12-20T12:55:43;35.40;;;20.43;;
20525;SDS011;10421;49.142;9.232;2022-12-20T13:01:10;37.37;;;20.53;;
20525;SDS011;10421;49.142;9.232;2022-12-20T13:04:07;37.90;;;19.20;;
20525;SDS011;10421;49.142;9.232;2022-12-20T13:06:59;40.83;;;22.70;;
20525;SDS011;10421;49.142;9.232;2022-12-20T13:09:35;39.87;;;24.10;;
20525;SDS011;10421;49.142;9.232;2022-12-20T13:18:24;34.33;;;21.07;;
20525;SDS011;10421;49.142;9.232;2022-12-20T13:27:12;41.60;;;21.80;;
20525;SDS011;10421;49.142;9.232;2022-12-20T13:30:22;38.20;;;20.97;;
20525;SDS011;10421;49.142;9.232;2022-12-20T13:32:56;36.40;;;21.07;;
20525;SDS011;10421;49.142;9.232;2022-12-20T13:35:58;39.63;;;22.03;;
20525;SDS011;10421;49.142;9.232;2022-12-20T13:41:32;40.00;;;21.50;;
20525;SDS011;10421;49.142;9.232;2022-12-20T13:44:20;35.00;;;20.90;;
20525;SDS011;10421;49.142;9.232;2022-12-20T13:47:02;38.53;;;22.00;;
20525;SDS011;10421;49.142;9.232;2022-12-20T13:49:38;37.03;;;21.57;;
20525;SDS011;10421;49.142;9.232;2022-12-20T13:52:11;40.40;;;21.10;;
20525;SDS011;10421;49.142;9.232;2022-12-20T13:54:42;34.60;;;19.60;;
20525;SDS011;10421;49.142;9.232;2022-12-20T13:57:13;36.47;;;19.80;;
20525;SDS011;10421;49.142;9.232;2022-12-20T13:59:45;37.33;;;20.53;;
20525;SDS011;10421;49.142;9.232;2022-12-20T14:02:16;32.77;;;20.43;;
20525;SDS011;10421;49.142;9.232;2022-12-20T14:04:49;37.53;;;20.60;;
20525;SDS011;10421;49.142;9.232;2022-12-20T14:07:23;39.33;;;20.17;;
20525;SDS011;10421;49.142;9.232;2022-12-20T14:09:55;34.00;;;20.00;;
20525;SDS011;10421;49.142;9.232;2022-12-20T14:12:24;40.33;;;19.70;;
20525;SDS011;10421;49.142;9.232;2022-12-20T14:14:53;38.60;;;21.23;;
20525;SDS011;10421;49.142;9.232;2022-12-20T14:17:22;36.33;;;21.50;;
20525;SDS011;10421;49.142;9.232;2022-12-20T14:20:11;35.87;;;19.47;;
20525;SDS011;10421;49.142;9.232;2022-12-20T14:22:40;33.90;;;19.70;;
20525;SDS011;10421;49.142;9.232;2022-12-20T14:25:11;35.00;;;18.97;;
20525;SDS011;10421;49.142;9.232;2022-12-20T14:27:43;36.77;;;20.53;;
20525;SDS011;10421;49.142;9.232;2022-12-20T14:30:28;32.43;;;19.30;;
20525;SDS011;10421;49.142;9.232;2022-12-20T14:32:57;37.93;;;21.77;;
20525;SDS011;10421;49.142;9.232;2022-12-20T14:35:25;33.47;;;20.43;;
20525;SDS011;10421;49.142;9.232;2022-12-20T14:37:53;37.67;;;20.27;;
20525;SDS011;10421;49.142;9.232;2022-12-20T14:40:22;39.57;;;20.20;;
20525;SDS011;10421;49.142;9.232;2022-12-20T14:42:49;41.70;;;21.00;;
20525;SDS011;10421;49.142;9.232;2022-12-20T14:45:17;35.60;;;20.33;;
20525;SDS011;10421;49.142;9.232;2022-12-20T14:47:49;36.23;;;19.73;;
20525;SDS011;10421;49.142;9.232;2022-12-20T14:50:21;33.30;;;20.70;;
20525;SDS011;10421;49.142;9.232;2022-12-20T14:52:52;34.43;;;19.13;;
20525;SDS011;10421;49.142;9.232;2022-12-20T14:55:20;31.17;;;20.10;;
20525;SDS011;10421;49.142;9.232;2022-12-20T14:57:50;37.50;;;20.60;;
20525;SDS011;10421;49.142;9.232;2022-12-20T15:00:19;30.23;;;19.33;;
20525;SDS011;10421;49.142;9.232;2022-12-20T15:02:50;39.00;;;21.30;;
20525;SDS011;10421;49.142;9.232;2022-12-20T15:05:44;33.53;;;19.60;;
20525;SDS011;10421;49.142;9.232;2022-12-20T15:08:13;37.80;;;20.03;;
20525;SDS011;10421;49.142;9.232;2022-12-20T15:10:46;35.53;;;19.37;;
20525;SDS011;10421;49.142;9.232;2022-12-20T15:13:19;37.23;;;20.33;;